createdAt,value
2019-04-27T00:01:05.225Z,98206.09
2019-04-27T00:03:36.503Z,98206.79
2019-04-27T00:06:08.397Z,98203.96
2019-04-27T00:08:53.542Z,98207.66
2019-04-27T00:11:23.808Z,98202.80
2019-04-27T00:13:53.577Z,98203.97
2019-04-27T00:16:40.375Z,98202.09
2019-04-27T00:19:23.289Z,98201.12
2019-04-27T00:21:53.175Z,98200.38
2019-04-27T00:24:21.402Z,98196.63
2019-04-27T00:26:49.680Z,98194.19
2019-04-27T00:29:17.886Z,98190.75
2019-04-27T00:31:46.471Z,98190.55
2019-04-27T00:34:15.276Z,98190.49
2019-04-27T00:36:51.012Z,98199.00
2019-04-27T00:39:23.819Z,98191.81
2019-04-27T00:41:53.154Z,98185.44
2019-04-27T00:44:21.560Z,98173.94
2019-04-27T00:46:50.062Z,98170.24
2019-04-27T00:49:20.305Z,98172.11
2019-04-27T00:51:48.592Z,98171.16
2019-04-27T00:54:16.809Z,98173.93
2019-04-27T00:57:03.273Z,98174.68
2019-04-27T00:59:48.818Z,98163.89
2019-04-27T01:02:23.206Z,98166.20
2019-04-27T01:04:53.863Z,98155.02
2019-04-27T01:07:22.780Z,98157.58
2019-04-27T01:09:52.804Z,98149.50
2019-04-27T01:12:21.616Z,98148.48
2019-04-27T01:14:49.815Z,98151.48
2019-04-27T01:17:18.925Z,98145.91
2019-04-27T01:19:47.208Z,98141.43
2019-04-27T01:22:15.418Z,98139.31
2019-04-27T01:24:43.617Z,98135.98
2019-04-27T01:27:25.717Z,98130.59
2019-04-27T01:29:55.603Z,98130.80
2019-04-27T01:32:23.809Z,98126.41
2019-04-27T01:34:52.062Z,98121.39
2019-04-27T01:37:21.202Z,98120.91
2019-04-27T01:39:50.394Z,98122.50
2019-04-27T01:42:19.289Z,98120.92
2019-04-27T01:44:50.802Z,98125.73
2019-04-27T01:47:18.750Z,98125.55
2019-04-27T01:49:47.203Z,98125.64
2019-04-27T01:52:15.399Z,98122.93
2019-04-27T01:54:43.958Z,98121.30
2019-04-27T01:57:12.549Z,98124.88
2019-04-27T01:59:40.761Z,98135.01
2019-04-27T02:02:16.985Z,98119.84
2019-04-27T02:04:55.853Z,98118.80
2019-04-27T02:07:24.381Z,98121.34
2019-04-27T02:09:52.609Z,98126.27
2019-04-27T02:12:20.813Z,98126.95
2019-04-27T02:14:49.218Z,98125.14
2019-04-27T02:17:18.695Z,98123.00
2019-04-27T02:19:49.276Z,98124.86
2019-04-27T02:22:18.699Z,98114.84
2019-04-27T02:24:47.013Z,98111.36
2019-04-27T02:27:18.661Z,98102.00
2019-04-27T02:29:51.162Z,98104.36
2019-04-27T02:32:23.954Z,98104.08
2019-04-27T02:34:53.819Z,98103.94
2019-04-27T02:37:22.009Z,98104.08
2019-04-27T02:39:50.504Z,98096.56
2019-04-27T02:42:20.225Z,98099.72
2019-04-27T02:44:49.374Z,98097.52
2019-04-27T02:47:20.557Z,98098.96
2019-04-27T02:49:50.402Z,98099.19
2019-04-27T02:52:20.126Z,98103.70
2019-04-27T02:54:50.532Z,98096.78
2019-04-27T02:57:19.784Z,98099.69
2019-04-27T02:59:50.386Z,98099.19
2019-04-27T03:02:22.605Z,98099.86
2019-04-27T03:04:50.868Z,98097.03
2019-04-27T03:07:20.105Z,98096.84
2019-04-27T03:09:50.631Z,98099.64
2019-04-27T03:12:20.175Z,98084.92
2019-04-27T03:14:50.738Z,98085.55
2019-04-27T03:17:23.421Z,98082.37
2019-04-27T03:20:10.532Z,98084.52
2019-04-27T03:22:50.039Z,98082.30
2019-04-27T03:25:20.367Z,98077.41
2019-04-27T03:27:51.220Z,98075.89
2019-04-27T03:30:22.910Z,98068.72
2019-04-27T03:32:54.929Z,98070.66
2019-04-27T03:35:22.784Z,98061.34
2019-04-27T03:37:50.142Z,98066.65
2019-04-27T03:40:20.322Z,98068.01
2019-04-27T03:42:50.414Z,98060.67
2019-04-27T03:45:19.946Z,98056.45
2019-04-27T03:47:50.443Z,98059.98
2019-04-27T03:50:20.495Z,98058.32
2019-04-27T03:53:06.665Z,98056.73
2019-04-27T03:55:52.930Z,98057.64
2019-04-27T03:58:39.619Z,98053.16
2019-04-27T04:01:10.580Z,98043.16
2019-04-27T04:03:39.285Z,98046.87
2019-04-27T04:06:10.507Z,98046.28
2019-04-27T04:08:39.674Z,98045.20
2019-04-27T04:11:11.954Z,98048.45
2019-04-27T04:13:42.059Z,98050.84
2019-04-27T04:16:19.676Z,98051.13
2019-04-27T04:19:01.467Z,98056.81
2019-04-27T04:21:30.229Z,98054.36
2019-04-27T04:24:00.737Z,98054.26
2019-04-27T04:26:31.928Z,98058.59
2019-04-27T04:28:59.854Z,98059.94
2019-04-27T04:31:29.781Z,98057.69
2019-04-27T04:33:59.676Z,98060.27
2019-04-27T04:36:30.116Z,98061.35
2019-04-27T04:39:00.425Z,98058.67
2019-04-27T04:41:32.617Z,98059.08
2019-04-27T04:44:12.199Z,98061.30
2019-04-27T04:46:40.091Z,98067.45
2019-04-27T04:49:09.413Z,98065.34
2019-04-27T04:51:40.032Z,98067.10
2019-04-27T04:54:09.489Z,98064.10
2019-04-27T04:56:39.251Z,98067.10
2019-04-27T04:59:09.943Z,98072.30
2019-04-27T05:01:39.738Z,98064.70
2019-04-27T05:04:09.115Z,98066.55
2019-04-27T05:06:38.959Z,98065.96
2019-04-27T05:09:09.159Z,98073.66
2019-04-27T05:11:37.323Z,98077.42
2019-04-27T05:14:05.524Z,98072.84
2019-04-27T05:16:34.049Z,98075.46
2019-04-27T05:19:02.263Z,98077.69
2019-04-27T05:21:32.415Z,98078.14
2019-04-27T05:24:00.869Z,98078.81
2019-04-27T05:26:29.519Z,98080.45
2019-04-27T05:28:59.262Z,98066.23
2019-04-27T05:31:29.235Z,98065.97
2019-04-27T05:33:59.228Z,98071.84
2019-04-27T05:36:29.502Z,98068.58
2019-04-27T05:38:57.615Z,98070.16
2019-04-27T05:41:25.836Z,98068.20
2019-04-27T05:43:59.138Z,98067.62
2019-04-27T05:46:46.954Z,98066.03
2019-04-27T05:49:16.810Z,98068.73
2019-04-27T05:51:47.885Z,98064.14
2019-04-27T05:54:15.253Z,98060.92
2019-04-27T05:56:43.461Z,98060.36
2019-04-27T05:59:14.525Z,98061.74
2019-04-27T06:01:41.925Z,98059.97
2019-04-27T06:04:10.134Z,98059.23
2019-04-27T06:06:39.906Z,98053.72
2019-04-27T06:09:09.494Z,98056.41
2019-04-27T06:11:39.813Z,98052.38
2019-04-27T06:14:09.517Z,98052.03
2019-04-27T06:16:39.375Z,98051.17
2019-04-27T06:19:09.465Z,98055.72
2019-04-27T06:21:39.901Z,98053.45
2019-04-27T06:24:08.742Z,98050.00
2019-04-27T06:26:37.163Z,98045.78
2019-04-27T06:29:05.662Z,98058.83
2019-04-27T06:31:34.138Z,98049.11
2019-04-27T06:34:02.637Z,98045.89
2019-04-27T06:36:30.829Z,98040.38
2019-04-27T06:38:59.076Z,98038.27
2019-04-27T06:41:29.272Z,98032.11
2019-04-27T06:43:59.084Z,98040.52
2019-04-27T06:46:28.726Z,98032.12
2019-04-27T06:48:59.162Z,98025.47
2019-04-27T06:51:28.704Z,98023.17
2019-04-27T06:53:57.097Z,98023.68
2019-04-27T06:56:25.601Z,98014.39
2019-04-27T06:58:54.084Z,98013.47
2019-04-27T07:01:22.281Z,98013.12
2019-04-27T07:03:50.744Z,98010.16
2019-04-27T07:06:18.935Z,98016.56
2019-04-27T07:08:47.161Z,98015.37
2019-04-27T07:11:15.417Z,98013.80
2019-04-27T07:13:44.062Z,98007.19
2019-04-27T07:16:12.252Z,98009.80
2019-04-27T07:18:40.452Z,98016.25
2019-04-27T07:21:16.890Z,98008.64
2019-04-27T07:23:40.549Z,98010.97
2019-04-27T07:26:09.362Z,98004.50
2019-04-27T07:28:39.253Z,98006.88
2019-04-27T07:31:09.558Z,98016.05
2019-04-27T07:33:39.577Z,98011.00
2019-04-27T07:36:08.942Z,98017.28
2019-04-27T07:38:37.252Z,98010.56
2019-04-27T07:41:05.455Z,98006.14
2019-04-27T07:43:39.660Z,98002.63
2019-04-27T07:46:08.889Z,97999.61
2019-04-27T07:48:37.276Z,97999.48
2019-04-27T07:51:05.472Z,97990.30
2019-04-27T07:53:33.665Z,97996.78
2019-04-27T07:56:01.903Z,98002.53
2019-04-27T07:58:30.098Z,98007.34
2019-04-27T08:00:59.460Z,98001.57
2019-04-27T08:03:29.120Z,97997.34
2019-04-27T08:05:58.824Z,97998.23
2019-04-27T08:08:28.615Z,98000.36
2019-04-27T08:10:56.972Z,97993.59
2019-04-27T08:13:25.162Z,97989.91
2019-04-27T08:15:53.361Z,97999.44
2019-04-27T08:18:21.553Z,98000.09
2019-04-27T08:20:49.774Z,98002.61
2019-04-27T08:23:19.526Z,98008.81
2019-04-27T08:25:48.945Z,98003.42
2019-04-27T08:28:21.401Z,97995.06
2019-04-27T08:31:08.915Z,97999.78
2019-04-27T08:33:38.873Z,97992.38
2019-04-27T08:36:08.905Z,97994.42
2019-04-27T08:38:38.847Z,97993.36
2019-04-27T08:41:08.972Z,97986.70
2019-04-27T08:43:39.034Z,97993.01
2019-04-27T08:46:08.755Z,97994.23
2019-04-27T08:48:39.356Z,97984.51
2019-04-27T08:51:09.652Z,97987.27
2019-04-27T08:53:39.634Z,97987.66
2019-04-27T08:56:09.349Z,97976.72
2019-04-27T08:58:38.634Z,97970.93
2019-04-27T09:01:10.054Z,97972.52
2019-04-27T09:03:37.039Z,97964.81
2019-04-27T09:06:06.880Z,97974.80
2019-04-27T09:08:45.528Z,97956.25
2019-04-27T09:11:15.377Z,97952.86
2019-04-27T09:13:54.331Z,97946.69
2019-04-27T09:16:24.487Z,97942.36
2019-04-27T09:18:54.329Z,97939.97
2019-04-27T09:21:22.536Z,97936.78
2019-04-27T09:23:50.743Z,97931.18
2019-04-27T09:26:18.941Z,97937.73
2019-04-27T09:28:47.136Z,97934.77
2019-04-27T09:31:15.363Z,97932.86
2019-04-27T09:33:43.610Z,97923.33
2019-04-27T09:36:11.771Z,97919.02
2019-04-27T09:38:39.975Z,97921.34
2019-04-27T09:41:08.209Z,97913.86
2019-04-27T09:43:36.804Z,97915.46
2019-04-27T09:46:05.894Z,97910.77
2019-04-27T09:48:36.131Z,97906.25
2019-04-27T09:51:06.190Z,97900.22
2019-04-27T09:53:36.340Z,97902.28
2019-04-27T09:56:05.825Z,97898.45
2019-04-27T09:58:34.245Z,97911.96
2019-04-27T10:01:02.457Z,97896.94
2019-04-27T10:03:30.661Z,97905.02
2019-04-27T10:05:58.883Z,97905.33
2019-04-27T10:08:27.079Z,97898.95
2019-04-27T10:10:56.678Z,97898.88
2019-04-27T10:13:25.706Z,97889.52
2019-04-27T10:15:55.221Z,97896.56
2019-04-27T10:18:23.418Z,97885.83
2019-04-27T10:20:59.679Z,97875.09
2019-04-27T10:23:21.881Z,97878.30
2019-04-27T10:25:50.459Z,97897.84
2019-04-27T10:28:18.651Z,97893.59
2019-04-27T10:30:46.862Z,97902.77
2019-04-27T10:33:16.082Z,97903.92
2019-04-27T10:35:44.405Z,97918.51
2019-04-27T10:38:12.605Z,97928.06
2019-04-27T10:40:41.139Z,97904.52
2019-04-27T10:43:09.611Z,97907.63
2019-04-27T10:45:38.198Z,97904.40
2019-04-27T10:48:06.677Z,97897.87
2019-04-27T10:50:36.576Z,97903.94
2019-04-27T10:53:06.844Z,97896.56
2019-04-27T10:55:36.280Z,97896.45
2019-04-27T10:58:04.944Z,97897.03
2019-04-27T11:00:37.497Z,97895.43
2019-04-27T11:03:06.624Z,97892.88
2019-04-27T11:05:36.521Z,97893.64
2019-04-27T11:08:06.506Z,97899.98
2019-04-27T11:10:36.078Z,97899.02
2019-04-27T11:13:06.260Z,97887.20
2019-04-27T11:15:34.509Z,97891.38
2019-04-27T11:18:02.984Z,97890.52
2019-04-27T11:20:31.189Z,97892.11
2019-04-27T11:23:07.199Z,97889.94
2019-04-27T11:25:29.308Z,97888.79
2019-04-27T11:27:57.856Z,97890.27
2019-04-27T11:30:26.622Z,97890.54
2019-04-27T11:32:58.853Z,97896.02
2019-04-27T11:35:32.389Z,97888.13
2019-04-27T11:38:00.587Z,97901.37
2019-04-27T11:40:28.789Z,97891.27
2019-04-27T11:42:58.624Z,97886.09
2019-04-27T11:45:28.497Z,97890.00
2019-04-27T11:47:57.112Z,97888.25
2019-04-27T11:50:25.834Z,97883.33
2019-04-27T11:52:54.037Z,97898.45
2019-04-27T11:55:22.243Z,97903.94
2019-04-27T11:57:50.760Z,97897.89
2019-04-27T12:00:20.910Z,97892.21
2019-04-27T12:02:49.122Z,97898.63
2019-04-27T12:05:17.316Z,97901.66
2019-04-27T12:07:47.413Z,97900.61
2019-04-27T12:10:15.906Z,97904.02
2019-04-27T12:12:46.170Z,97900.53
2019-04-27T12:15:16.183Z,97900.34
2019-04-27T12:17:46.066Z,97909.95
2019-04-27T12:20:16.045Z,97900.58
2019-04-27T12:22:44.807Z,97898.21
2019-04-27T12:25:14.632Z,97898.68
2019-04-27T12:28:00.899Z,97899.56
2019-04-27T12:30:30.741Z,97893.78
2019-04-27T12:32:58.942Z,97899.38
2019-04-27T12:35:27.464Z,97892.41
2019-04-27T12:37:56.115Z,97892.21
2019-04-27T12:40:24.352Z,97889.76
2019-04-27T12:42:52.556Z,97887.30
2019-04-27T12:45:20.749Z,97878.23
2019-04-27T12:47:48.957Z,97881.07
2019-04-27T12:50:17.369Z,97875.88
2019-04-27T12:52:47.269Z,97880.10
2019-04-27T12:55:17.468Z,97880.67
2019-04-27T12:57:52.738Z,97877.84
2019-04-27T13:00:22.572Z,97871.72
2019-04-27T13:02:50.794Z,97880.80
2019-04-27T13:05:18.983Z,97881.36
2019-04-27T13:07:47.193Z,97876.25
2019-04-27T13:10:15.919Z,97878.16
2019-04-27T13:12:46.004Z,97874.54
2019-04-27T13:15:14.370Z,97871.33
2019-04-27T13:17:42.586Z,97864.70
2019-04-27T13:20:11.077Z,97874.55
2019-04-27T13:22:39.292Z,97873.41
2019-04-27T13:25:08.588Z,97875.08
2019-04-27T13:27:36.846Z,97872.52
2019-04-27T13:30:07.393Z,97865.04
2019-04-27T13:32:36.455Z,97868.88
2019-04-27T13:35:06.458Z,97862.93
2019-04-27T13:37:39.560Z,97861.27
2019-04-27T13:40:09.676Z,97856.11
2019-04-27T13:42:57.489Z,97852.42
2019-04-27T13:45:43.461Z,97849.77
2019-04-27T13:48:28.872Z,97844.51
2019-04-27T13:50:58.993Z,97841.48
2019-04-27T13:53:27.212Z,97840.06
2019-04-27T13:55:56.817Z,97841.58
2019-04-27T13:58:25.098Z,97833.46
2019-04-27T14:00:53.638Z,97834.27
2019-04-27T14:03:21.854Z,97846.78
2019-04-27T14:05:50.049Z,97876.76
2019-04-27T14:08:18.241Z,97869.56
2019-04-27T14:10:46.434Z,97872.88
2019-04-27T14:13:17.501Z,97865.73
2019-04-27T14:15:44.950Z,97870.36
2019-04-27T14:18:13.248Z,97883.19
2019-04-27T14:20:41.781Z,97887.94
2019-04-27T14:23:14.335Z,97896.14
2019-04-27T14:25:42.533Z,97891.10
2019-04-27T14:28:10.732Z,97901.64
2019-04-27T14:30:40.057Z,97903.19
2019-04-27T14:33:08.536Z,97912.67
2019-04-27T14:35:36.781Z,97908.33
2019-04-27T14:38:04.977Z,97904.44
2019-04-27T14:40:33.178Z,97911.58
2019-04-27T14:43:01.374Z,97910.10
2019-04-27T14:45:29.869Z,97915.91
2019-04-27T14:47:58.285Z,97910.42
2019-04-27T14:50:26.834Z,97908.62
2019-04-27T14:52:55.032Z,97901.88
2019-04-27T14:55:24.873Z,97909.65
2019-04-27T14:57:53.076Z,97913.45
2019-04-27T15:00:21.838Z,97909.52
2019-04-27T15:02:50.032Z,97915.86
2019-04-27T15:05:18.256Z,97917.55
2019-04-27T15:07:46.445Z,97924.76
2019-04-27T15:10:16.191Z,97919.09
2019-04-27T15:12:44.612Z,97921.11
2019-04-27T15:15:12.813Z,97929.08
2019-04-27T15:17:41.047Z,97927.75
2019-04-27T15:20:22.629Z,97937.98
2019-04-27T15:22:56.705Z,97941.36
2019-04-27T15:25:20.784Z,97933.78
2019-04-27T15:27:50.644Z,97932.27
2019-04-27T15:30:39.570Z,97936.53
2019-04-27T15:33:23.626Z,97930.78
2019-04-27T15:35:59.251Z,97927.84
2019-04-27T15:38:47.726Z,97914.38
2019-04-27T15:41:15.660Z,97926.27
2019-04-27T15:43:45.930Z,97937.65
2019-04-27T15:46:14.409Z,97921.44
2019-04-27T15:48:42.605Z,97930.03
2019-04-27T15:51:17.414Z,97933.46
2019-04-27T15:53:41.659Z,97938.05
2019-04-27T15:56:10.667Z,97944.41
2019-04-27T15:58:39.114Z,97945.25
2019-04-27T16:01:11.651Z,97949.16
2019-04-27T16:03:38.950Z,97952.25
2019-04-27T16:06:08.175Z,97947.19
2019-04-27T16:08:38.209Z,97935.68
2019-04-27T16:11:09.949Z,97949.08
2019-04-27T16:13:38.269Z,97941.50
2019-04-27T16:16:08.330Z,97944.31
2019-04-27T16:18:36.448Z,97938.61
2019-04-27T16:21:07.169Z,97934.91
2019-04-27T16:23:40.299Z,97926.25
2019-04-27T16:26:09.670Z,97923.00
2019-04-27T16:28:34.804Z,97927.01
2019-04-27T16:31:03.005Z,97953.39
2019-04-27T16:33:31.205Z,97962.86
2019-04-27T16:36:06.325Z,97963.98
2019-04-27T16:38:48.120Z,97961.81
2019-04-27T16:41:18.050Z,97966.71
2019-04-27T16:43:46.340Z,97976.69
2019-04-27T16:46:14.547Z,97987.70
2019-04-27T16:48:43.003Z,97981.00
2019-04-27T16:51:11.203Z,97989.45
2019-04-27T16:53:41.125Z,97996.19
2019-04-27T16:56:15.170Z,98002.88
2019-04-27T16:58:39.846Z,98009.09
2019-04-27T17:01:10.838Z,98014.11
2019-04-27T17:03:41.386Z,98012.30
2019-04-27T17:06:09.460Z,98005.42
2019-04-27T17:08:39.386Z,98002.48
2019-04-27T17:11:11.529Z,97994.19
2019-04-27T17:13:39.334Z,98001.74
2019-04-27T17:16:09.431Z,97992.17
2019-04-27T17:18:42.261Z,97991.61
2019-04-27T17:21:18.786Z,97985.50
2019-04-27T17:23:40.760Z,97989.17
2019-04-27T17:26:20.522Z,97998.90
2019-04-27T17:28:50.934Z,98004.77
2019-04-27T17:31:21.514Z,98009.11
2019-04-27T17:33:51.699Z,98007.00
2019-04-27T17:36:20.020Z,97990.97
2019-04-27T17:38:50.999Z,98003.75
2019-04-27T17:41:18.433Z,98003.36
2019-04-27T17:43:48.157Z,98000.27
2019-04-27T17:46:16.849Z,98008.02
2019-04-27T17:48:45.050Z,98012.41
2019-04-27T17:51:13.530Z,98016.21
2019-04-27T17:53:42.085Z,98022.48
2019-04-27T17:56:10.567Z,98018.73
2019-04-27T17:58:39.641Z,98010.54
2019-04-27T18:01:13.980Z,98012.83
2019-04-27T18:03:39.917Z,98023.50
2019-04-27T18:06:08.643Z,98021.08
2019-04-27T18:08:38.093Z,98025.63
2019-04-27T18:11:08.635Z,98025.22
2019-04-27T18:13:38.742Z,98025.02
2019-04-27T18:16:08.996Z,98030.94
2019-04-27T18:18:59.969Z,98036.80
2019-04-27T18:21:28.319Z,98035.95
2019-04-27T18:23:58.648Z,98043.20
2019-04-27T18:26:49.142Z,98045.84
2019-04-27T18:29:08.893Z,98044.77
2019-04-27T18:31:38.328Z,98046.42
2019-04-27T18:34:09.919Z,98048.08
2019-04-27T18:36:37.886Z,98047.06
2019-04-27T18:39:10.393Z,98053.31
2019-04-27T18:41:40.236Z,98072.97
2019-04-27T18:44:08.737Z,98073.29
2019-04-27T18:46:38.448Z,98072.97
2019-04-27T18:49:11.285Z,98067.55
2019-04-27T18:51:41.154Z,98071.64
2019-04-27T18:54:09.628Z,98084.77
2019-04-27T18:56:41.593Z,98079.38
2019-04-27T18:59:08.470Z,98081.42
2019-04-27T19:01:37.012Z,98084.50
2019-04-27T19:04:05.525Z,98090.16
2019-04-27T19:06:33.693Z,98087.80
2019-04-27T19:09:02.262Z,98094.45
2019-04-27T19:11:30.457Z,98093.51
2019-04-27T19:13:59.118Z,98101.34
2019-04-27T19:16:29.072Z,98095.68
2019-04-27T19:18:58.404Z,98100.88
2019-04-27T19:21:28.673Z,98102.25
2019-04-27T19:23:58.466Z,98106.38
2019-04-27T19:26:43.434Z,98104.88
2019-04-27T19:29:15.679Z,98105.66
2019-04-27T19:31:45.515Z,98112.50
2019-04-27T19:34:13.747Z,98110.23
2019-04-27T19:36:41.947Z,98114.50
2019-04-27T19:39:13.919Z,98113.38
2019-04-27T19:41:41.651Z,98110.20
2019-04-27T19:44:10.191Z,98108.80
2019-04-27T19:46:40.290Z,98108.92
2019-04-27T19:49:08.907Z,98101.55
2019-04-27T19:51:39.232Z,98103.63
2019-04-27T19:54:09.053Z,98103.98
2019-04-27T19:56:38.424Z,98103.08
2019-04-27T19:59:10.854Z,98113.35
2019-04-27T20:01:40.689Z,98120.41
2019-04-27T20:04:13.299Z,98116.78
2019-04-27T20:06:41.565Z,98123.93
2019-04-27T20:09:27.611Z,98122.98
2019-04-27T20:11:55.805Z,98125.09
2019-04-27T20:14:24.012Z,98132.55
2019-04-27T20:16:52.209Z,98126.39
2019-04-27T20:19:21.558Z,98144.02
2019-04-27T20:21:50.862Z,98142.81
2019-04-27T20:24:19.175Z,98149.37
2019-04-27T20:26:47.374Z,98147.16
2019-04-27T20:29:15.892Z,98150.09
2019-04-27T20:31:44.097Z,98144.62
2019-04-27T20:34:12.301Z,98141.09
2019-04-27T20:36:41.488Z,98151.69
2019-04-27T20:39:11.741Z,98158.42
2019-04-27T20:41:41.114Z,98164.67
2019-04-27T20:44:11.043Z,98164.34
2019-04-27T20:46:41.355Z,98171.31
2019-04-27T20:49:13.720Z,98172.00
2019-04-27T20:51:51.014Z,98168.02
2019-04-27T20:54:21.486Z,98173.51
2019-04-27T20:56:51.583Z,98171.57
2019-04-27T20:59:19.602Z,98169.72
2019-04-27T21:01:47.808Z,98171.89
2019-04-27T21:04:17.652Z,98179.31
2019-04-27T21:06:55.938Z,98175.34
2019-04-27T21:09:24.136Z,98181.81
2019-04-27T21:11:52.368Z,98188.29
2019-04-27T21:14:21.714Z,98186.98
2019-04-27T21:16:51.694Z,98184.34
2019-04-27T21:19:21.058Z,98184.34
2019-04-27T21:21:51.080Z,98184.40
2019-04-27T21:24:20.765Z,98194.00
2019-04-27T21:26:51.110Z,98206.55
2019-04-27T21:29:20.914Z,98208.77
2019-04-27T21:31:49.180Z,98203.84
2019-04-27T21:34:17.373Z,98203.34
2019-04-27T21:36:45.830Z,98204.07
2019-04-27T21:39:14.030Z,98200.13
2019-04-27T21:41:42.588Z,98204.98
2019-04-27T21:44:11.572Z,98208.42
2019-04-27T21:46:41.708Z,98212.77
2019-04-27T21:49:11.208Z,98218.52
2019-04-27T21:51:58.009Z,98208.38
2019-04-27T21:54:27.872Z,98215.84
2019-04-27T21:56:56.411Z,98220.11
2019-04-27T21:59:24.616Z,98214.45
2019-04-27T22:01:55.531Z,98211.45
2019-04-27T22:04:25.504Z,98220.19
2019-04-27T22:06:53.712Z,98224.67
2019-04-27T22:09:21.990Z,98220.81
2019-04-27T22:11:51.102Z,98218.52
2019-04-27T22:14:19.360Z,98217.08
2019-04-27T22:16:47.560Z,98213.45
2019-04-27T22:19:16.116Z,98216.41
2019-04-27T22:21:44.329Z,98223.47
2019-04-27T22:24:14.182Z,98226.50
2019-04-27T22:26:42.455Z,98226.58
2019-04-27T22:29:12.107Z,98231.43
2019-04-27T22:31:41.603Z,98232.94
2019-04-27T22:34:10.856Z,98233.34
2019-04-27T22:36:39.149Z,98228.05
2019-04-27T22:39:27.554Z,98225.92
2019-04-27T22:42:13.570Z,98227.59
2019-04-27T22:44:44.199Z,98234.94
2019-04-27T22:47:13.012Z,98236.71
2019-04-27T22:49:41.200Z,98239.28
2019-04-27T22:52:11.659Z,98246.27
2019-04-27T22:54:39.899Z,98244.41
2019-04-27T22:57:11.342Z,98247.58
2019-04-27T22:59:47.436Z,98250.25
2019-04-27T23:02:22.917Z,98253.69
2019-04-27T23:04:52.766Z,98251.56
2019-04-27T23:07:21.561Z,98255.50
2019-04-27T23:09:51.604Z,98252.42
2019-04-27T23:12:21.356Z,98256.41
2019-04-27T23:14:49.642Z,98259.21
2019-04-27T23:17:19.484Z,98265.86
2019-04-27T23:19:47.705Z,98260.20
2019-04-27T23:22:15.905Z,98261.52
2019-04-27T23:24:44.149Z,98259.41
2019-04-27T23:27:15.124Z,98261.64
2019-04-27T23:29:42.597Z,98257.30
2019-04-27T23:32:12.480Z,98255.16
2019-04-27T23:34:41.501Z,98260.41
2019-04-27T23:37:10.201Z,98263.05
2019-04-27T23:39:38.684Z,98260.41
2019-04-27T23:42:07.069Z,98261.80
2019-04-27T23:44:35.235Z,98259.23
2019-04-27T23:47:04.809Z,98259.68
2019-04-27T23:49:33.003Z,98252.16
2019-04-27T23:52:02.849Z,98258.90
2019-04-27T23:54:31.055Z,98262.48
2019-04-27T23:56:59.268Z,98249.80
2019-04-27T23:59:27.475Z,98256.36
